• Join FlightAware (Why Join?)
  • Login
  • US Flag 
07:54AM EDT


 

Airport Tracker/Info


-or-


 

Live Flight TrackerFlight Track Log ✈ N969RA ✈ 10-May-2013 ✈ KOSH - KOSH

Flight Track Log - Related Links

Times and Time Zones

All times are in EDT time to prevent confusion due to time zone crossing. See the N969RA flight status page for this flight to view local times or setup timezone preferences in your user account.

Time Position Orientation Groundspeed Altitude Reporting Facility
EDT Latitude Longitude Course Direction KTS MPH feet Rate Location/Type
10:02AM 43.9833 -88.5667 302° West 127 146 1,700  Level KMKE
10:04AM 43.9845 -88.5569 81° East  Level Estimated
10:05AM 44.0408 -88.6936 81° East 133 153 3,000  Level Chicago Center
10:06AM 44.0575 -88.6692 47° Northeast 105 121 3,000 -60 Level Chicago Center
10:07AM 44.0778 -88.6439 42° Northeast 88 101 2,900  Descending Minneapolis Center
10:08AM 44.0967 -88.6275 32° Northeast 83 96 3,000 60 Climbing Minneapolis Center
10:09AM 44.1147 -88.6144 27° Northeast 84 97 3,100  Climbing Minneapolis Center
10:10AM 44.1419 -88.5967 25° Northeast 89 102 3,000 -240 Descending Minneapolis Center
10:11AM 44.1644 -88.5817 26° Northeast 90 104 2,700 -300 Descending Minneapolis Center
10:12AM 44.1842 -88.5672 28° Northeast 85 98 2,400 -420 Descending Minneapolis Center
10:13AM 44.2047 -88.5533 26° Northeast 77 89 1,900 -420 Descending Minneapolis Center
10:15AM 44.2225 -88.5411 26° Northeast 73 84 1,600 -240 Descending Minneapolis Center
10:16AM 44.2394 -88.5311 23° Northeast 72 83 1,500 180 Descending Minneapolis Center
10:18AM 44.2689 -88.4906 45° Northeast 143 165 2,300 480 Climbing Chicago Center
10:19AM 44.2703 -88.4444 88° East 100 115 3,100 300 Climbing Minneapolis Center
10:20AM 44.2753 -88.4000 81° East 106 122 3,000 -60 Descending Minneapolis Center
10:21AM 44.2611 -88.3622 118° Southeast 127 146 3,000  Level Minneapolis Center
10:22AM 44.2242 -88.3442 161° South 137 158 3,000  Level Minneapolis Center
10:23AM 44.1867 -88.3272 162° South 140 161 3,000  Level Minneapolis Center
10:24AM 44.1728 -88.2911 118° Southeast 127 146 3,100  Climbing Minneapolis Center
10:25AM 44.1653 -88.2442 103° East 111 128 3,000 -60 Descending Minneapolis Center
10:26AM 44.1675 -88.2078 85° East 102 117 3,000  Level Minneapolis Center
10:27AM 44.1800 -88.1842 54° Northeast 88 101 3,000  Level Minneapolis Center
10:28AM 44.2044 -88.1725 19° North 87 100 3,000  Level Minneapolis Center
10:29AM 44.2236 -88.1564 31° Northeast 85 98 3,000  Level Minneapolis Center
10:30AM 44.2467 -88.1378 30° Northeast 82 94 3,000  Level Minneapolis Center
10:31AM 44.2706 -88.1267 18° North 86 99 3,000  Level Minneapolis Center
10:32AM 44.2969 -88.1267 360° North 90 104 3,000  Level Minneapolis Center
10:33AM 44.3225 -88.1294 356° North 91 105 3,000 -60 Level Minneapolis Center
10:34AM 44.3461 -88.1294 360° North 88 101 2,900 -180 Descending Minneapolis Center
10:35AM 44.3692 -88.1294 360° North 85 98 2,700 -360 Descending Minneapolis Center
10:36AM 44.3939 -88.1289 North 80 92 2,200  Descending Minneapolis Center
10:39AM 44.3683 -88.1559 217° Southwest  Level Estimated
10:43AM 44.4742 -88.0500 217° Southwest 140 161 3,100  Level Minneapolis Center
10:44AM 44.4444 -88.0114 137° Southeast 143 165 3,000 -60 Descending Minneapolis Center
10:46AM 44.2144 -88.3175 217° Southwest  Level Estimated
10:46AM 44.4158 -87.9747 138° Southeast 144 166 3,000  Level Minneapolis Center
10:47AM 44.1924 -88.3405 217° Southwest  Level Estimated
10:47AM 44.3614 -87.9983 197° South 160 184 3,000  Level Minneapolis Center
10:48AM 44.1704 -88.3635 217° Southwest  Level Estimated
10:48AM 44.3158 -88.0019 183° South 164 189 3,200  Level Minneapolis Center
10:49AM 44.1484 -88.3864 217° Southwest  Level Estimated
10:49AM 44.2628 -88.0064 183° South 164 189 3,000  Level Minneapolis Center
10:50AM 44.2169 -88.0058 180° South 164 189 3,000  Level Minneapolis Center
10:51AM 44.1744 -87.9894 165° South 159 183 3,000  Level Minneapolis Center
10:52AM 44.1306 -87.9747 166° South 160 184 3,100  Climbing Minneapolis Center
10:53AM 44.0869 -87.9625 169° South 160 184 3,000  Descending Minneapolis Center
10:54AM 44.0381 -87.9489 169° South 157 181 3,100  Climbing Minneapolis Center
10:55AM 44.0053 -87.9178 146° Southeast 147 169 3,000 -60 Descending Minneapolis Center
10:56AM 43.9719 -87.8858 145° Southeast 146 168 3,000  Level Minneapolis Center
10:57AM 43.9411 -87.8528 142° Southeast 143 165 3,000  Level Minneapolis Center
10:58AM 43.9292 -87.8064 110° East 132 152 3,100  Climbing Minneapolis Center
10:59AM 43.9136 -87.7631 116° Southeast 127 146 3,000 -60 Descending Minneapolis Center
11:00AM 43.8961 -87.7072 113° Southeast 130 150 3,000  Level Minneapolis Center
11:01AM 43.9111 -87.6714 60° Northeast 133 153 3,100  Climbing Minneapolis Center
11:02AM 43.9367 -87.6506 30° Northeast 117 135 3,100 -180 Level Minneapolis Center
11:03AM 43.9653 -87.6619 344° North 111 128 2,800 -300 Descending Minneapolis Center
11:04AM 43.9944 -87.6608 North 109 125 2,600 -120 Descending Minneapolis Center
11:05AM 44.0167 -87.6656 351° North 95 109 2,600 -240 Level Minneapolis Center
11:06AM 44.0414 -87.6678 356° North 85 98 2,200  Descending Minneapolis Center
11:09AM 44.0374 -87.7343 265° West  Level Estimated
11:12AM 44.1528 -87.7136 265° West 138 159 3,000  Level Chicago Center
11:13AM 44.1194 -87.7486 217° Southwest 148 170 3,000 60 Level Chicago Center
11:14AM 44.0881 -87.7853 220° Southwest 148 170 3,200  Climbing Chicago Center
11:15AM 44.0531 -87.8250 219° Southwest 154 177 3,100 -60 Descending Chicago Center
11:16AM 44.0170 -88.0629 265° West  Level Estimated
11:16AM 44.0078 -87.8700 216° Southwest 165 190 3,100  Level Minneapolis Center
11:17AM 44.0140 -88.1099 265° West  Level Estimated
11:17AM 43.9742 -87.9153 224° Southwest 168 193 3,000  Level Minneapolis Center
11:18AM 43.9456 -87.9811 239° Southwest 168 193 3,200  Climbing Minneapolis Center
11:19AM 43.9206 -88.0394 239° Southwest 172 198 3,100 -120 Descending Minneapolis Center
11:20AM 43.8953 -88.0967 239° Southwest 173 199 3,000  Descending Minneapolis Center
11:21AM 43.8703 -88.1531 238° Southwest 173 199 3,100  Climbing Minneapolis Center
11:23AM 43.8419 -88.2319 244° Southwest 172 198 3,100  Level Minneapolis Center
11:24AM 43.8242 -88.2900 247° West 168 193 3,100  Level Minneapolis Center
11:25AM 43.8067 -88.3486 248° West 166 191 3,100 -60 Level Minneapolis Center
11:26AM 43.7900 -88.4083 249° West 166 191 3,000 -60 Descending Minneapolis Center
11:27AM 43.7875 -88.4686 267° West 161 185 3,000  Level Minneapolis Center
11:28AM 43.7792 -88.5358 260° West 156 180 3,100  Climbing Minneapolis Center
11:29AM 43.7967 -88.5572 319° Northwest 119 137 3,000 -180 Descending Minneapolis Center
11:30AM 43.8219 -88.5575 360° North 98 113 2,800  Descending Minneapolis Center
11:31AM 43.8464 -88.5572 360° North 92 106 3,000 -60 Climbing Minneapolis Center
11:32AM 43.8692 -88.5544 North 87 100 2,700 -300 Descending Minneapolis Center
11:33AM 43.8903 -88.5542 North 81 93 2,400 -420 Descending Minneapolis Center
11:34AM 43.9161 -88.5561 357° North 79 91 1,900 -540 Descending Minneapolis Center
11:35AM 43.9389 -88.5547 North 80 92 1,400 -420 Descending Minneapolis Center
11:36AM 43.9589 -88.5564 357° North 80 92 1,100 -300 Descending Minneapolis Center